createdAt,value
2022-12-05T00:03:06.316Z,19.63
2022-12-05T00:08:09.321Z,17.67
2022-12-05T00:13:12.526Z,17.97
2022-12-05T00:18:15.722Z,15.70
2022-12-05T00:23:18.964Z,16.90
2022-12-05T00:28:22.420Z,17.57
2022-12-05T00:33:25.539Z,18.77
2022-12-05T00:38:28.535Z,18.00
2022-12-05T00:43:32.210Z,18.77
2022-12-05T00:48:35.642Z,18.90
2022-12-05T00:53:38.909Z,19.27
2022-12-05T00:58:42.497Z,20.17
2022-12-05T01:03:46.409Z,18.77
2022-12-05T01:08:49.406Z,19.07
2022-12-05T01:13:53.191Z,19.27
2022-12-05T01:18:57.963Z,17.73
2022-12-05T01:24:01.173Z,19.53
2022-12-05T01:29:05.073Z,19.20
2022-12-05T01:34:11.146Z,18.53
2022-12-05T01:39:14.754Z,18.63
2022-12-05T01:44:17.698Z,18.70
2022-12-05T01:49:34.847Z,19.53
2022-12-05T01:54:38.445Z,18.83
2022-12-05T01:59:50.354Z,19.53
2022-12-05T02:05:08.928Z,17.57
2022-12-05T02:10:12.118Z,15.67
2022-12-05T02:15:45.716Z,16.00
2022-12-05T02:21:27.558Z,17.80
2022-12-05T02:27:08.228Z,16.50
2022-12-05T02:33:18.916Z,15.80
2022-12-05T02:38:38.219Z,15.83
2022-12-05T02:44:03.413Z,16.37
2022-12-05T02:49:10.126Z,16.00
2022-12-05T02:54:17.252Z,16.37
2022-12-05T02:59:23.575Z,15.80
2022-12-05T03:04:28.088Z,16.00
2022-12-05T03:09:36.266Z,16.23
2022-12-05T03:14:48.759Z,17.03
2022-12-05T03:20:12.790Z,17.30
2022-12-05T03:25:16.284Z,15.90
2022-12-05T03:30:21.789Z,16.50
2022-12-05T03:35:37.847Z,15.90
2022-12-05T03:40:49.229Z,17.03
2022-12-05T03:46:09.972Z,17.20
2022-12-05T03:51:15.710Z,18.50
2022-12-05T03:56:24.178Z,18.57
2022-12-05T04:01:28.587Z,18.73
2022-12-05T04:06:35.160Z,17.70
2022-12-05T04:11:43.838Z,16.47
2022-12-05T04:17:28.956Z,16.67
2022-12-05T04:22:32.718Z,16.03
2022-12-05T04:27:43.115Z,15.47
2022-12-05T04:32:55.017Z,15.30
2022-12-05T04:38:05.673Z,15.97
2022-12-05T04:43:09.914Z,16.80
2022-12-05T04:48:15.582Z,18.20
2022-12-05T04:53:18.695Z,16.80
2022-12-05T04:58:23.557Z,18.47
2022-12-05T05:03:40.546Z,17.70
2022-12-05T05:08:53.093Z,17.67
2022-12-05T05:13:56.317Z,16.53
2022-12-05T05:19:02.297Z,16.37
2022-12-05T05:24:06.655Z,15.97
2022-12-05T05:29:10.708Z,16.80
2022-12-05T05:34:16.489Z,17.20
2022-12-05T05:39:19.593Z,16.90
2022-12-05T05:44:24.047Z,18.27
2022-12-05T05:49:26.936Z,18.57
2022-12-05T05:54:30.115Z,16.30
2022-12-05T05:59:33.277Z,16.13
2022-12-05T06:04:36.159Z,17.03
2022-12-05T06:09:39.524Z,16.17
2022-12-05T06:14:43.008Z,14.53
2022-12-05T06:19:46.110Z,16.07
2022-12-05T06:24:49.407Z,18.57
2022-12-05T06:29:53.235Z,15.87
2022-12-05T06:34:56.344Z,14.77
2022-12-05T06:39:59.406Z,16.63
2022-12-05T06:45:03.057Z,15.27
2022-12-05T06:50:06.686Z,14.83
2022-12-05T06:55:09.822Z,15.17
2022-12-05T07:00:32.709Z,14.57
2022-12-05T07:05:35.901Z,17.53
2022-12-05T07:10:38.997Z,18.57
2022-12-05T07:15:42.019Z,18.97
2022-12-05T07:21:10.561Z,18.63
2022-12-05T07:26:11.906Z,18.80
2022-12-05T07:31:23.002Z,19.77
2022-12-05T07:36:26.248Z,19.00
2022-12-05T07:41:33.566Z,24.90
2022-12-05T07:46:42.492Z,22.83
2022-12-05T07:51:45.460Z,20.67
2022-12-05T07:56:48.503Z,20.67
2022-12-05T08:01:52.473Z,20.67
2022-12-05T08:06:55.780Z,19.40
2022-12-05T08:11:58.978Z,21.53
2022-12-05T08:17:02.511Z,21.23
2022-12-05T08:22:08.678Z,31.93
2022-12-05T08:27:12.145Z,23.87
2022-12-05T08:32:15.198Z,21.73
2022-12-05T08:37:19.106Z,21.70
2022-12-05T08:42:22.532Z,20.43
2022-12-05T08:47:25.710Z,22.73
2022-12-05T08:52:28.947Z,20.97
2022-12-05T08:57:34.660Z,21.43
2022-12-05T09:02:37.873Z,21.27
2022-12-05T09:07:41.101Z,20.90
2022-12-05T09:12:44.391Z,21.53
2022-12-05T09:17:47.914Z,22.20
2022-12-05T09:22:52.565Z,19.47
2022-12-05T09:27:56.712Z,21.60
2022-12-05T09:33:00.231Z,21.27
2022-12-05T09:38:03.618Z,20.97
2022-12-05T09:43:07.834Z,69.27
2022-12-05T09:48:14.408Z,22.00
2022-12-05T09:53:33.330Z,21.63
2022-12-05T09:58:46.020Z,23.73
2022-12-05T10:04:17.982Z,24.97
2022-12-05T10:09:33.234Z,21.33
2022-12-05T10:14:49.831Z,25.67
2022-12-05T10:19:54.213Z,22.77
2022-12-05T10:25:04.219Z,24.80
2022-12-05T10:30:15.807Z,22.33
2022-12-05T10:35:28.389Z,38.60
2022-12-05T10:40:42.431Z,24.60
2022-12-05T10:45:47.595Z,22.57
2022-12-05T10:50:53.429Z,24.30
2022-12-05T10:56:28.869Z,22.10
2022-12-05T11:01:19.832Z,21.73
2022-12-05T11:06:29.242Z,22.70
2022-12-05T11:11:34.015Z,22.53
2022-12-05T11:16:38.957Z,25.27
2022-12-05T11:21:43.259Z,22.93
2022-12-05T11:26:46.486Z,20.60
2022-12-05T11:31:52.358Z,24.13
2022-12-05T11:37:00.307Z,23.53
2022-12-05T11:42:24.729Z,22.20
2022-12-05T11:47:52.379Z,23.80
2022-12-05T11:53:23.352Z,22.33
2022-12-05T11:59:01.620Z,23.80
2022-12-05T12:04:45.569Z,27.03
2022-12-05T12:09:48.656Z,23.93
2022-12-05T12:14:59.677Z,23.20
2022-12-05T12:20:35.032Z,25.00
2022-12-05T12:26:04.038Z,23.30
2022-12-05T12:31:13.745Z,24.67
2022-12-05T12:36:26.207Z,27.17
2022-12-05T12:41:41.598Z,24.50
2022-12-05T12:46:53.557Z,24.77
2022-12-05T12:52:04.214Z,20.53
2022-12-05T12:57:26.484Z,22.53
2022-12-05T13:02:51.498Z,20.73
2022-12-05T13:07:59.416Z,31.57
2022-12-05T13:13:04.067Z,29.93
2022-12-05T13:18:08.172Z,27.20
2022-12-05T13:23:16.987Z,24.90
2022-12-05T13:28:35.973Z,26.87
2022-12-05T13:33:50.491Z,25.10
2022-12-05T13:39:23.393Z,26.17
2022-12-05T13:44:33.629Z,33.03
2022-12-05T13:49:53.501Z,29.77
2022-12-05T13:55:01.523Z,27.10
2022-12-05T14:00:10.608Z,25.07
2022-12-05T14:05:20.292Z,25.27
2022-12-05T14:10:29.478Z,25.40
2022-12-05T14:15:36.318Z,27.13
2022-12-05T14:21:10.664Z,27.73
2022-12-05T14:26:32.635Z,40.70
2022-12-05T14:32:07.479Z,27.70
2022-12-05T14:37:16.568Z,29.73
2022-12-05T14:42:40.597Z,34.03
2022-12-05T14:47:51.138Z,34.73
2022-12-05T14:53:22.057Z,34.20
2022-12-05T14:58:33.585Z,31.50
2022-12-05T15:03:39.738Z,32.93
2022-12-05T15:08:49.747Z,30.50
2022-12-05T15:13:53.097Z,30.23
2022-12-05T15:19:07.530Z,30.57
2022-12-05T15:24:15.770Z,31.13
2022-12-05T15:29:25.575Z,40.40
2022-12-05T15:34:31.326Z,31.07
2022-12-05T15:40:00.165Z,31.90
2022-12-05T15:45:12.404Z,31.67
2022-12-05T15:50:15.979Z,29.77
2022-12-05T15:55:32.637Z,30.80
2022-12-05T16:00:37.194Z,31.13
2022-12-05T16:05:48.248Z,32.13
2022-12-05T16:10:51.813Z,31.07
2022-12-05T16:15:55.192Z,37.23
2022-12-05T16:20:58.531Z,32.50
2022-12-05T16:26:13.426Z,32.20
2022-12-05T16:31:17.954Z,33.20
2022-12-05T16:36:21.492Z,30.80
2022-12-05T16:41:33.199Z,29.30
2022-12-05T16:46:39.182Z,32.87
2022-12-05T16:51:45.013Z,30.63
2022-12-05T16:56:48.089Z,33.23
2022-12-05T17:01:51.335Z,32.60
2022-12-05T17:06:57.137Z,32.17
2022-12-05T17:12:23.573Z,29.23
2022-12-05T17:17:26.723Z,29.40
2022-12-05T17:22:30.194Z,35.20
2022-12-05T17:27:33.862Z,30.53
2022-12-05T17:32:36.911Z,28.53
2022-12-05T17:37:39.848Z,30.63
2022-12-05T17:42:43.554Z,34.20
2022-12-05T17:47:46.561Z,35.80
2022-12-05T17:52:50.579Z,29.90
2022-12-05T17:57:54.370Z,29.40
2022-12-05T18:02:57.705Z,29.97
2022-12-05T18:08:01.098Z,32.17
2022-12-05T18:13:04.688Z,32.77
2022-12-05T18:18:08.639Z,32.83
2022-12-05T18:23:12.215Z,33.73
2022-12-05T18:28:17.925Z,28.97
2022-12-05T18:33:22.730Z,34.63
2022-12-05T18:38:26.702Z,28.53
2022-12-05T18:43:30.223Z,30.03
2022-12-05T18:48:47.019Z,30.87
2022-12-05T18:53:52.830Z,45.80
2022-12-05T18:59:07.896Z,34.70
2022-12-05T19:04:12.983Z,34.10
2022-12-05T19:09:18.541Z,32.40
2022-12-05T19:14:21.501Z,39.93
2022-12-05T19:19:24.933Z,34.83
2022-12-05T19:24:28.314Z,33.77
2022-12-05T19:29:31.176Z,41.43
2022-12-05T19:34:34.640Z,38.60
2022-12-05T19:39:37.918Z,33.30
2022-12-05T19:44:41.191Z,32.37
2022-12-05T19:49:44.016Z,32.77
2022-12-05T19:54:47.072Z,32.17
2022-12-05T19:59:50.055Z,32.43
2022-12-05T20:04:53.142Z,32.47
2022-12-05T20:09:56.910Z,36.77
2022-12-05T20:15:00.601Z,34.87
2022-12-05T20:20:05.151Z,38.53
2022-12-05T20:25:08.806Z,39.77
2022-12-05T20:30:11.723Z,34.23
2022-12-05T20:35:16.608Z,32.57
2022-12-05T20:40:21.652Z,37.07
2022-12-05T20:45:25.188Z,37.53
2022-12-05T20:50:28.397Z,34.33
2022-12-05T20:55:31.423Z,33.50
2022-12-05T21:00:35.184Z,31.67
2022-12-05T21:05:39.301Z,31.60
2022-12-05T21:10:47.402Z,32.63
2022-12-05T21:15:50.716Z,32.60
2022-12-05T21:21:04.999Z,27.87
2022-12-05T21:26:11.648Z,27.77
2022-12-05T21:31:17.875Z,27.00
2022-12-05T21:36:21.789Z,27.77
2022-12-05T21:41:25.952Z,31.43
2022-12-05T21:46:29.557Z,35.07
2022-12-05T21:51:32.787Z,35.57
2022-12-05T21:56:36.613Z,36.03
2022-12-05T22:01:39.636Z,36.13
2022-12-05T22:06:43.284Z,36.97
2022-12-05T22:11:46.743Z,37.00
2022-12-05T22:16:50.140Z,37.43
2022-12-05T22:21:53.351Z,37.10
2022-12-05T22:26:56.335Z,36.20
2022-12-05T22:31:59.479Z,38.20
2022-12-05T22:37:02.384Z,37.23
2022-12-05T22:42:05.521Z,36.33
2022-12-05T22:47:08.944Z,36.67
2022-12-05T22:52:12.291Z,34.97
2022-12-05T22:57:15.671Z,36.23
2022-12-05T23:02:19.236Z,39.77
2022-12-05T23:07:22.359Z,37.63
2022-12-05T23:12:25.693Z,35.70
2022-12-05T23:17:28.696Z,36.93
2022-12-05T23:22:31.943Z,33.90
2022-12-05T23:27:35.172Z,35.87
2022-12-05T23:32:38.095Z,37.73
2022-12-05T23:37:41.189Z,34.73
2022-12-05T23:42:44.087Z,32.87
2022-12-05T23:47:46.947Z,34.90
2022-12-05T23:52:49.646Z,35.00
2022-12-05T23:57:52.615Z,35.37
